​ ​

Форум клана ЧПУшников

Информация о пользователе

Привет, Гость! Войдите или зарегистрируйтесь.


Вы здесь » Форум клана ЧПУшников » Лазерные станки


Лазерные станки

Тем 1 страница 80 из 685

Тема Ответов Просмотров Последнее сообщение
1 Важно: Фото готовых работ выполненных на лазере 2  Администратор  [ 1 2 3  10 ]
915 73264 15-08-2022 12:17:02  SeregaSvetsin
2 Важно: Подскажите новичку 4  Kula  [ 1 2 3  9 ]
838 22443 10-07-2022 19:56:38  Андрей95301
172 11775 22-06-2020 15:49:13  Vera
11 671 Вчера 23:52:36  elm
0 21 21-09-2022 19:12:01  xrom91
3 69 14-09-2022 05:32:09  Dark Knight
0 17 11-09-2022 15:45:03  Aleksey335588
19 186 09-09-2022 21:29:11  СергейЯЯ
1 48 07-09-2022 20:49:35  Dieselpower
111 12102 27-08-2022 15:44:24  РустамРустам
3 95 25-08-2022 09:20:29  Сергей глобус
1 41 23-08-2022 13:14:48  MaksSav4enko
3 74 21-08-2022 06:30:03  Kinetic
3 64 21-08-2022 06:23:33  Kinetic
0 33 19-08-2022 19:33:27  passer713
3 105 19-08-2022 14:18:07  Zareff.ru
2 103 10-08-2022 13:47:37  KRILLzolotov
352 42734 08-08-2022 14:34:23  Pos
3 103 04-08-2022 06:03:54  Kinetic
0 58 03-08-2022 00:00:55  Vad1m
2 44 25-07-2022 15:58:29  MaksSav4enko
22 Bodor или Senfeng?  OkunevPavel
0 39 25-07-2022 15:48:32  OkunevPavel
8 296 25-07-2022 11:56:01  denisej
5 385 15-07-2022 15:23:29  AntonSergeevich
1 51 14-07-2022 13:16:23  MaksSav4enko
0 53 10-07-2022 08:05:44  Valera2710
3 101 27-06-2022 17:07:09  MaksSav4enko
0 59 27-06-2022 12:18:40  ebawas
29 ruida rdc 6563f  xrom91
2 57 24-06-2022 12:47:05  MaksSav4enko
7 128 23-06-2022 12:48:08  Andrey034
15 2979 21-06-2022 07:23:24  Влад UA1RG
33 1238 14-06-2022 10:13:41  MaksSav4enko
4 107 08-06-2022 15:32:25  MaksSav4enko
643 30500 24-05-2022 22:29:57  Хуарес
256 39372 20-05-2022 07:40:15  ИгорьМ
1 381 30-04-2022 10:30:45  Холик
0 53 22-04-2022 15:30:46  Erectly
0 37 13-04-2022 12:55:54  Pacific532654
39 AutoLaser и TL-403CB  SmileCat  [ 1 2 ]
177 7532 12-04-2022 21:58:34  maxbel
2 62 10-04-2022 23:22:35  Алексей Антонов
11 1815 14-03-2022 20:09:33  Vertlkal
42 Чиллер  Timoha55  [ 1 2 3 4 5 ]
498 19709 08-03-2022 12:26:28  в этом деле
1 92 25-02-2022 08:15:33  Alex_Asutp
44 CorelDraw  Vladimir821  [ 1 2 ]
165 9623 21-02-2022 15:21:37  SantaCom
8 189 21-02-2022 13:22:55  Dobroff
62 3332 12-02-2022 09:29:28  vasa29
47 ortur laser master2-20w  Александр Сихаев
8 718 05-02-2022 17:41:56  Василий12
48 руида 6442  ilya37rus
3 209 26-01-2022 17:55:16  mitskevich
2 80 20-01-2022 22:19:42  igordad
0 86 14-01-2022 17:39:23  MuForum
0 167 13-01-2022 14:41:57  MuForum
3 97 07-01-2022 14:47:55  vasa29
1 123 24-12-2021 01:37:21  АХА
17 946 20-12-2021 15:47:09  Jek44
0 53 16-12-2021 22:15:51  OlexandrM
2 97 12-12-2021 12:54:55  MuForum
99 6183 10-12-2021 09:36:03  Dinex
22 1580 09-12-2021 15:12:51  Алекс123665778
1 121 08-12-2021 17:36:42  shatrovmaxim
0 48 07-12-2021 17:40:35  MuForum
77 2802 07-12-2021 07:07:41  Dark Knight
5 237 02-12-2021 13:51:41  Sanana
202 9848 01-12-2021 17:45:26  Владимир syv
22 214 25-11-2021 12:31:30  Jeka One
96 15556 22-11-2021 05:56:26  Timoha55
5 196 21-11-2021 15:47:06  Triada
3 133 20-11-2021 16:34:25  appo
1 117 17-11-2021 15:08:58  Jeka One
193 6984 10-11-2021 14:22:23  inestigator
1 49 21-10-2021 20:23:27  Jeka One
71 выбор компрессора  ecto  [ 1 2 3 4 ]
377 18073 12-10-2021 04:21:10  МОДУЛЬНАЯ ФИЛЬТР-ГРУППА Д
2 181 08-10-2021 09:52:15  Сергей инженер-наладчик
28 1250 22-09-2021 08:45:00  Karbofos
26 2144 21-09-2021 15:54:53  Karbofos
24 536 30-08-2021 17:31:26  BlackOx
4 116 30-08-2021 13:11:33  TATAPNH
15 449 28-07-2021 14:15:30  Valera5609
2 177 21-07-2021 17:27:24  maks11
1 126 17-07-2021 12:57:11  Valera5609
4 1135 14-07-2021 07:18:08  Вассс

Вы здесь » Форум клана ЧПУшников » Лазерные станки